createdAt,value
2019-02-09T00:02:36.952Z,97040.28
2019-02-09T00:06:41.376Z,97026.38
2019-02-09T00:10:44.823Z,97023.73
2019-02-09T00:14:48.268Z,97013.72
2019-02-09T00:18:51.717Z,97002.91
2019-02-09T00:22:55.167Z,96967.27
2019-02-09T00:26:58.621Z,96967.77
2019-02-09T00:31:02.086Z,96951.27
2019-02-09T00:35:05.529Z,96915.70
2019-02-09T00:39:08.984Z,96952.30
2019-02-09T00:43:12.431Z,96948.64
2019-02-09T00:47:15.881Z,96937.58
2019-02-09T00:51:19.335Z,96926.53
2019-02-09T00:55:22.765Z,96914.59
2019-02-09T00:59:26.214Z,96922.01
2019-02-09T01:03:29.662Z,96924.73
2019-02-09T01:07:33.113Z,96922.52
2019-02-09T01:11:36.556Z,96904.91
2019-02-09T01:15:40.007Z,96926.17
2019-02-09T01:19:43.488Z,96907.70
2019-02-09T01:23:46.937Z,96900.59
2019-02-09T01:27:50.397Z,96899.17
2019-02-09T01:31:53.844Z,96904.17
2019-02-09T01:35:57.297Z,96892.19
2019-02-09T01:40:00.751Z,96893.06
2019-02-09T01:44:04.217Z,96882.67
2019-02-09T01:48:07.671Z,96887.21
2019-02-09T01:52:11.108Z,96886.02
2019-02-09T01:56:14.584Z,96907.95
2019-02-09T02:00:18.035Z,96917.39
2019-02-09T02:04:21.488Z,96904.90
2019-02-09T02:08:24.933Z,96895.53
2019-02-09T02:12:28.384Z,96883.31
2019-02-09T02:16:31.832Z,96870.16
2019-02-09T02:20:35.279Z,96847.36
2019-02-09T02:24:38.733Z,96831.55
2019-02-09T02:28:42.190Z,96816.95
2019-02-09T02:32:45.639Z,96837.91
2019-02-09T02:36:49.097Z,96816.07
2019-02-09T02:40:52.595Z,96843.95
2019-02-09T02:44:56.002Z,96812.91
2019-02-09T02:48:59.459Z,96840.16
2019-02-09T02:53:02.905Z,96821.43
2019-02-09T02:57:06.365Z,96824.39
2019-02-09T03:01:09.820Z,96824.69
2019-02-09T03:05:13.262Z,96838.18
2019-02-09T03:09:16.715Z,96828.69
2019-02-09T03:13:20.155Z,96780.82
2019-02-09T03:17:23.605Z,96787.20
2019-02-09T03:21:27.058Z,96785.37
2019-02-09T03:25:30.521Z,96787.44
2019-02-09T03:29:33.954Z,96796.89
2019-02-09T03:33:37.415Z,96806.08
2019-02-09T03:37:40.857Z,96799.89
2019-02-09T03:41:44.305Z,96794.84
2019-02-09T03:45:47.759Z,96804.69
2019-02-09T03:49:51.195Z,96809.13
2019-02-09T03:53:54.654Z,96814.33
2019-02-09T03:57:58.113Z,96814.59
2019-02-09T04:02:02.631Z,96840.84
2019-02-09T04:06:06.082Z,96845.00
2019-02-09T04:10:09.525Z,96822.84
2019-02-09T04:14:12.974Z,96839.16
2019-02-09T04:18:16.431Z,96848.66
2019-02-09T04:22:19.880Z,96875.11
2019-02-09T04:26:23.339Z,96892.13
2019-02-09T04:30:26.776Z,96905.66
2019-02-09T04:34:30.230Z,96910.02
2019-02-09T04:38:33.687Z,96919.33
2019-02-09T04:42:37.143Z,96913.22
2019-02-09T04:46:40.598Z,96913.48
2019-02-09T04:50:44.033Z,96898.73
2019-02-09T04:54:47.484Z,96890.13
2019-02-09T04:58:50.934Z,96902.62
2019-02-09T05:02:54.387Z,96895.83
2019-02-09T05:06:57.833Z,96892.07
2019-02-09T05:11:01.284Z,96893.30
2019-02-09T05:15:04.746Z,96902.27
2019-02-09T05:19:08.196Z,96903.52
2019-02-09T05:23:11.654Z,96910.72
2019-02-09T05:27:15.092Z,96923.41
2019-02-09T05:31:23.098Z,96935.35
2019-02-09T05:35:23.700Z,96953.55
2019-02-09T05:39:27.153Z,96970.98
2019-02-09T05:43:30.609Z,96967.25
2019-02-09T05:47:34.051Z,96970.64
2019-02-09T05:51:37.518Z,96970.50
2019-02-09T05:55:40.962Z,96955.22
2019-02-09T05:59:44.410Z,96966.00
2019-02-09T06:03:47.863Z,96966.37
2019-02-09T06:07:51.310Z,96976.95
2019-02-09T06:11:54.758Z,96981.48
2019-02-09T06:15:58.219Z,96987.32
2019-02-09T06:20:01.666Z,96988.70
2019-02-09T06:24:05.118Z,97005.59
2019-02-09T06:28:08.559Z,97023.48
2019-02-09T06:32:12.010Z,97027.83
2019-02-09T06:36:15.482Z,97034.87
2019-02-09T06:40:18.922Z,97041.86
2019-02-09T06:44:22.373Z,97048.44
2019-02-09T06:48:25.818Z,97066.39
2019-02-09T06:52:29.268Z,97064.35
2019-02-09T06:56:32.727Z,97073.59
2019-02-09T07:00:36.186Z,97063.39
2019-02-09T07:04:39.638Z,97073.48
2019-02-09T07:08:43.084Z,97075.58
2019-02-09T07:12:46.565Z,97076.73
2019-02-09T07:16:50.014Z,97075.30
2019-02-09T07:20:53.463Z,97078.73
2019-02-09T07:24:56.923Z,97085.87
2019-02-09T07:29:00.366Z,97093.62
2019-02-09T07:33:03.821Z,97105.52
2019-02-09T07:37:08.307Z,97119.08
2019-02-09T07:41:11.761Z,97134.30
2019-02-09T07:45:15.213Z,97123.75
2019-02-09T07:49:18.647Z,97124.36
2019-02-09T07:53:22.106Z,97133.29
2019-02-09T07:57:25.558Z,97127.35
2019-02-09T08:01:29.023Z,97127.70
2019-02-09T08:05:32.473Z,97142.28
2019-02-09T08:09:35.912Z,97145.55
2019-02-09T08:13:39.371Z,97154.02
2019-02-09T08:17:42.809Z,97155.70
2019-02-09T08:21:46.269Z,97171.09
2019-02-09T08:25:49.720Z,97176.25
2019-02-09T08:29:53.158Z,97196.16
2019-02-09T08:33:56.613Z,97181.27
2019-02-09T08:38:00.060Z,97188.09
2019-02-09T08:42:03.521Z,97199.75
2019-02-09T08:46:06.971Z,97194.80
2019-02-09T08:50:10.423Z,97201.41
2019-02-09T08:54:13.875Z,97186.02
2019-02-09T08:58:17.326Z,97200.18
2019-02-09T09:02:20.975Z,97192.14
2019-02-09T09:06:24.399Z,97194.46
2019-02-09T09:10:27.854Z,97213.58
2019-02-09T09:14:31.312Z,97224.66
2019-02-09T09:18:34.765Z,97229.45
2019-02-09T09:22:38.217Z,97235.21
2019-02-09T09:26:41.667Z,97235.64
2019-02-09T09:30:45.124Z,97242.91
2019-02-09T09:34:48.573Z,97241.98
2019-02-09T09:38:52.027Z,97254.25
2019-02-09T09:42:55.482Z,97248.45
2019-02-09T09:46:59.995Z,97262.00
2019-02-09T09:51:03.448Z,97272.06
2019-02-09T09:55:06.910Z,97277.88
2019-02-09T09:59:10.355Z,97290.83
2019-02-09T10:03:13.808Z,97276.67
2019-02-09T10:07:17.263Z,97285.23
2019-02-09T10:11:20.704Z,97283.28
2019-02-09T10:15:24.160Z,97290.39
2019-02-09T10:19:27.619Z,97290.81
2019-02-09T10:23:31.075Z,97290.94
2019-02-09T10:27:34.525Z,97289.11
2019-02-09T10:31:37.994Z,97288.48
2019-02-09T10:35:41.444Z,97277.33
2019-02-09T10:39:44.906Z,97289.92
2019-02-09T10:43:48.357Z,97289.23
2019-02-09T10:47:51.807Z,97292.64
2019-02-09T10:51:55.271Z,97292.80
2019-02-09T10:55:58.742Z,97286.30
2019-02-09T11:00:02.195Z,97286.38
2019-02-09T11:04:05.640Z,97295.90
2019-02-09T11:08:09.114Z,97300.59
2019-02-09T11:12:12.595Z,97303.75
2019-02-09T11:16:16.046Z,97296.70
2019-02-09T11:20:19.524Z,97299.69
2019-02-09T11:24:23.954Z,97316.28
2019-02-09T11:28:27.427Z,97309.89
2019-02-09T11:32:30.888Z,97308.27
2019-02-09T11:36:34.374Z,97297.68
2019-02-09T11:40:37.838Z,97302.70
2019-02-09T11:44:41.447Z,97299.93
2019-02-09T11:48:44.831Z,97305.72
2019-02-09T11:52:48.290Z,97307.09
2019-02-09T11:56:51.756Z,97296.79
2019-02-09T12:00:55.211Z,97287.47
2019-02-09T12:04:58.669Z,97292.08
2019-02-09T12:09:02.131Z,97287.45
2019-02-09T12:13:06.762Z,97283.36
2019-02-09T12:17:10.231Z,97291.98
2019-02-09T12:21:13.714Z,97299.34
2019-02-09T12:25:17.166Z,97277.57
2019-02-09T12:29:20.649Z,97283.27
2019-02-09T12:33:24.129Z,97287.81
2019-02-09T12:37:27.582Z,97286.91
2019-02-09T12:41:31.071Z,97290.09
2019-02-09T12:45:34.519Z,97268.52
2019-02-09T12:49:37.984Z,97257.50
2019-02-09T12:53:41.445Z,97269.80
2019-02-09T12:57:44.906Z,97268.78
2019-02-09T13:01:48.346Z,97264.91
2019-02-09T13:05:51.823Z,97268.12
2019-02-09T13:09:55.306Z,97268.58
2019-02-09T13:13:58.766Z,97264.00
2019-02-09T13:18:02.229Z,97258.77
2019-02-09T13:22:05.685Z,97235.14
2019-02-09T13:26:09.139Z,97239.65
2019-02-09T13:30:12.603Z,97232.59
2019-02-09T13:34:16.067Z,97222.30
2019-02-09T13:38:19.536Z,97228.23
2019-02-09T13:42:22.981Z,97231.48
2019-02-09T13:46:26.446Z,97231.50
2019-02-09T13:50:29.913Z,97230.64
2019-02-09T13:54:33.381Z,97226.31
2019-02-09T13:58:36.844Z,97242.97
2019-02-09T14:02:40.288Z,97249.22
2019-02-09T14:06:43.761Z,97243.68
2019-02-09T14:10:47.209Z,97243.86
2019-02-09T14:14:50.676Z,97259.05
2019-02-09T14:18:54.139Z,97269.33
2019-02-09T14:22:57.588Z,97267.41
2019-02-09T14:27:01.050Z,97275.20
2019-02-09T14:31:04.507Z,97275.47
2019-02-09T14:35:07.969Z,97273.55
2019-02-09T14:39:11.431Z,97277.65
2019-02-09T14:43:14.880Z,97284.37
2019-02-09T14:47:18.346Z,97289.99
2019-02-09T14:51:21.814Z,97282.22
2019-02-09T14:55:25.278Z,97282.55
2019-02-09T14:59:28.748Z,97281.32
2019-02-09T15:03:32.308Z,97282.63
2019-02-09T15:07:35.740Z,97278.77
2019-02-09T15:11:39.207Z,97290.94
2019-02-09T15:15:42.671Z,97299.34
2019-02-09T15:19:46.128Z,97306.58
2019-02-09T15:23:49.581Z,97314.48
2019-02-09T15:27:53.042Z,97324.79
2019-02-09T15:31:56.513Z,97342.67
2019-02-09T15:35:59.968Z,97345.14
2019-02-09T15:40:03.425Z,97336.78
2019-02-09T15:44:06.866Z,97332.42
2019-02-09T15:48:10.337Z,97336.53
2019-02-09T15:52:13.789Z,97335.80
2019-02-09T15:56:17.242Z,97347.28
2019-02-09T16:00:20.693Z,97336.20
2019-02-09T16:04:24.138Z,97334.77
2019-02-09T16:08:27.597Z,97329.50
2019-02-09T16:12:31.050Z,97342.45
2019-02-09T16:16:35.580Z,97342.45
2019-02-09T16:20:39.033Z,97344.50
2019-02-09T16:24:42.480Z,97346.11
2019-02-09T16:28:45.950Z,97355.13
2019-02-09T16:32:49.405Z,97362.30
2019-02-09T16:36:52.862Z,97352.11
2019-02-09T16:40:56.306Z,97365.80
2019-02-09T16:44:59.761Z,97377.28
2019-02-09T16:49:03.231Z,97372.20
2019-02-09T16:53:06.688Z,97374.86
2019-02-09T16:57:10.145Z,97390.30
2019-02-09T17:01:13.591Z,97409.23
2019-02-09T17:05:17.051Z,97398.95
2019-02-09T17:09:20.512Z,97404.85
2019-02-09T17:13:23.982Z,97407.19
2019-02-09T17:17:27.437Z,97416.72
2019-02-09T17:21:30.883Z,97407.78
2019-02-09T17:25:34.340Z,97417.76
2019-02-09T17:29:39.285Z,97416.27
2019-02-09T17:33:42.848Z,97419.05
2019-02-09T17:37:46.308Z,97412.19
2019-02-09T17:41:49.757Z,97422.21
2019-02-09T17:45:53.207Z,97413.94
2019-02-09T17:49:56.670Z,97422.80
2019-02-09T17:54:00.124Z,97430.34
2019-02-09T17:58:03.579Z,97442.38
2019-02-09T18:02:07.025Z,97446.47
2019-02-09T18:06:10.488Z,97446.96
2019-02-09T18:10:13.941Z,97443.78
2019-02-09T18:14:17.393Z,97442.38
2019-02-09T18:18:20.843Z,97448.22
2019-02-09T18:22:24.291Z,97448.03
2019-02-09T18:26:27.748Z,97447.88
2019-02-09T18:30:31.199Z,97445.67
2019-02-09T18:34:34.650Z,97441.48
2019-02-09T18:38:38.123Z,97448.40
2019-02-09T18:42:41.577Z,97441.76
2019-02-09T18:46:45.030Z,97454.34
2019-02-09T18:50:48.484Z,97453.11
2019-02-09T18:54:51.940Z,97455.72
2019-02-09T18:58:55.394Z,97449.69
2019-02-09T19:02:58.841Z,97449.30
2019-02-09T19:07:03.377Z,97466.73
2019-02-09T19:11:06.858Z,97458.30
2019-02-09T19:15:10.326Z,97468.95
2019-02-09T19:19:13.779Z,97467.07
2019-02-09T19:23:17.239Z,97473.86
2019-02-09T19:27:20.698Z,97478.50
2019-02-09T19:31:24.172Z,97478.67
2019-02-09T19:35:27.634Z,97484.21
2019-02-09T19:39:31.084Z,97478.95
2019-02-09T19:43:34.545Z,97488.17
2019-02-09T19:47:38.008Z,97487.13
2019-02-09T19:51:41.463Z,97480.70
2019-02-09T19:55:44.926Z,97476.41
2019-02-09T19:59:48.462Z,97472.68
2019-02-09T20:03:51.877Z,97474.54
2019-02-09T20:07:55.606Z,97480.69
2019-02-09T20:11:59.180Z,97479.02
2019-02-09T20:16:02.643Z,97473.58
2019-02-09T20:20:06.088Z,97485.56
2019-02-09T20:24:09.540Z,97484.69
2019-02-09T20:28:12.996Z,97495.17
2019-02-09T20:32:16.452Z,97498.23
2019-02-09T20:36:19.915Z,97488.70
2019-02-09T20:40:23.363Z,97480.08
2019-02-09T20:44:26.823Z,97485.31
2019-02-09T20:48:30.271Z,97479.89
2019-02-09T20:52:33.728Z,97483.17
2019-02-09T20:56:38.012Z,97491.43
2019-02-09T21:00:41.467Z,97487.61
2019-02-09T21:04:44.918Z,97477.31
2019-02-09T21:08:48.379Z,97470.06
2019-02-09T21:12:51.842Z,97459.92
2019-02-09T21:16:55.303Z,97462.72
2019-02-09T21:20:58.748Z,97466.33
2019-02-09T21:25:02.202Z,97470.13
2019-02-09T21:29:05.665Z,97474.99
2019-02-09T21:33:09.120Z,97472.17
2019-02-09T21:37:12.585Z,97468.53
2019-02-09T21:41:16.044Z,97481.71
2019-02-09T21:45:19.493Z,97468.00
2019-02-09T21:49:22.952Z,97466.06
2019-02-09T21:53:26.407Z,97455.36
2019-02-09T21:57:29.868Z,97456.28
2019-02-09T22:01:33.312Z,97454.20
2019-02-09T22:05:36.770Z,97449.00
2019-02-09T22:09:40.230Z,97449.06
2019-02-09T22:13:43.692Z,97452.11
2019-02-09T22:17:48.129Z,97450.47
2019-02-09T22:21:51.846Z,97448.31
2019-02-09T22:25:55.419Z,97450.69
2019-02-09T22:29:58.939Z,97443.11
2019-02-09T22:34:02.484Z,97448.90
2019-02-09T22:38:05.959Z,97442.28
2019-02-09T22:42:09.401Z,97443.27
2019-02-09T22:46:12.855Z,97443.27
2019-02-09T22:50:19.192Z,97441.80
2019-02-09T22:54:21.481Z,97436.16
2019-02-09T22:58:24.948Z,97432.67
2019-02-09T23:02:28.395Z,97432.72
2019-02-09T23:06:31.851Z,97420.59
2019-02-09T23:10:35.307Z,97427.08
2019-02-09T23:14:38.763Z,97410.70
2019-02-09T23:18:42.207Z,97410.79
2019-02-09T23:22:45.665Z,97410.18
2019-02-09T23:26:49.125Z,97405.22
2019-02-09T23:30:52.587Z,97392.77
2019-02-09T23:34:56.041Z,97388.30
2019-02-09T23:38:59.485Z,97383.98
2019-02-09T23:43:03.309Z,97377.27
2019-02-09T23:47:06.762Z,97361.46
2019-02-09T23:51:10.220Z,97357.39
2019-02-09T23:55:13.681Z,97365.53
2019-02-09T23:59:17.125Z,97354.84
